createdAt,value
2022-08-23T00:00:13.333Z,2.70
2022-08-23T00:01:49.624Z,2.50
2022-08-23T00:03:23.021Z,2.60
2022-08-23T00:05:07.519Z,2.47
2022-08-23T00:06:43.074Z,2.23
2022-08-23T00:08:15.818Z,2.23
2022-08-23T00:09:48.559Z,2.40
2022-08-23T00:11:31.553Z,2.57
2022-08-23T00:13:04.357Z,2.50
2022-08-23T00:14:39.187Z,2.20
2022-08-23T00:16:11.947Z,2.30
2022-08-23T00:17:44.790Z,2.70
2022-08-23T00:19:19.376Z,2.20
2022-08-23T00:20:52.258Z,2.33
2022-08-23T00:22:24.982Z,2.60
2022-08-23T00:23:57.402Z,2.37
2022-08-23T00:25:30.138Z,2.60
2022-08-23T00:27:08.659Z,2.47
2022-08-23T00:28:40.544Z,2.67
2022-08-23T00:30:15.288Z,2.47
2022-08-23T00:31:47.703Z,2.57
2022-08-23T00:33:21.138Z,2.90
2022-08-23T00:34:54.788Z,2.90
2022-08-23T00:36:26.567Z,2.80
2022-08-23T00:38:32.589Z,2.60
2022-08-23T00:39:52.555Z,3.17
2022-08-23T00:41:24.478Z,3.07
2022-08-23T00:43:27.229Z,3.00
2022-08-23T00:45:21.533Z,2.80
2022-08-23T00:47:18.142Z,3.00
2022-08-23T00:48:52.359Z,2.97
2022-08-23T00:50:33.619Z,3.20
2022-08-23T00:52:11.199Z,3.27
2022-08-23T00:53:48.292Z,3.17
2022-08-23T00:55:22.082Z,3.40
2022-08-23T00:56:55.750Z,3.27
2022-08-23T00:58:30.786Z,3.70
2022-08-23T01:00:05.227Z,3.43
2022-08-23T01:01:38.737Z,3.13
2022-08-23T01:03:12.255Z,3.30
2022-08-23T01:04:51.003Z,3.70
2022-08-23T01:06:28.130Z,3.60
2022-08-23T01:08:01.953Z,3.53
2022-08-23T01:09:35.050Z,3.33
2022-08-23T01:11:10.706Z,3.47
2022-08-23T01:12:48.679Z,3.53
2022-08-23T01:14:30.118Z,3.10
2022-08-23T01:16:10.626Z,3.10
2022-08-23T01:17:47.093Z,3.50
2022-08-23T01:19:34.991Z,3.23
2022-08-23T01:21:15.487Z,3.20
2022-08-23T01:22:54.798Z,3.73
2022-08-23T01:24:47.377Z,3.57
2022-08-23T01:26:25.365Z,3.40
2022-08-23T01:27:58.432Z,3.57
2022-08-23T01:29:31.384Z,3.40
2022-08-23T01:31:06.644Z,3.60
2022-08-23T01:32:45.254Z,3.40
2022-08-23T01:34:18.208Z,3.37
2022-08-23T01:35:54.070Z,3.00
2022-08-23T01:37:26.831Z,3.37
2022-08-23T01:38:59.687Z,3.50
2022-08-23T01:40:34.110Z,2.90
2022-08-23T01:42:08.018Z,3.30
2022-08-23T01:43:40.774Z,3.10
2022-08-23T01:45:14.787Z,2.77
2022-08-23T01:46:48.319Z,3.00
2022-08-23T01:48:26.222Z,3.13
2022-08-23T01:49:58.110Z,2.93
2022-08-23T01:51:31.128Z,2.90
2022-08-23T01:53:04.315Z,3.00
2022-08-23T01:54:37.225Z,2.80
2022-08-23T01:56:11.344Z,3.00
2022-08-23T01:57:48.415Z,2.57
2022-08-23T01:59:21.526Z,2.90
2022-08-23T02:00:54.309Z,2.57
2022-08-23T02:02:28.212Z,3.10
2022-08-23T02:04:04.822Z,2.83
2022-08-23T02:05:38.247Z,2.90
2022-08-23T02:07:10.131Z,3.03
2022-08-23T02:09:00.473Z,2.87
2022-08-23T02:10:33.203Z,2.83
2022-08-23T02:12:07.959Z,2.60
2022-08-23T02:13:39.854Z,2.80
2022-08-23T02:15:13.111Z,2.90
2022-08-23T02:17:01.608Z,2.80
2022-08-23T02:18:37.736Z,2.50
2022-08-23T02:20:10.959Z,2.77
2022-08-23T02:21:44.134Z,2.53
2022-08-23T02:23:18.028Z,2.60
2022-08-23T02:24:51.229Z,2.60
2022-08-23T02:26:30.710Z,2.87
2022-08-23T02:28:06.197Z,2.80
2022-08-23T02:29:39.956Z,2.60
2022-08-23T02:31:12.014Z,2.80
2022-08-23T02:32:45.165Z,2.87
2022-08-23T02:34:20.735Z,2.87
2022-08-23T02:35:53.535Z,2.80
2022-08-23T02:37:26.482Z,2.57
2022-08-23T02:38:58.531Z,2.80
2022-08-23T02:40:31.360Z,2.87
2022-08-23T02:42:03.914Z,2.70
2022-08-23T02:43:41.076Z,2.50
2022-08-23T02:45:13.163Z,2.50
2022-08-23T02:46:46.084Z,2.93
2022-08-23T02:48:19.656Z,2.60
2022-08-23T02:49:53.035Z,2.70
2022-08-23T02:51:26.355Z,2.87
2022-08-23T02:52:59.455Z,2.83
2022-08-23T02:54:32.199Z,2.73
2022-08-23T02:56:06.140Z,2.80
2022-08-23T02:57:50.179Z,2.73
2022-08-23T02:59:24.269Z,2.80
2022-08-23T03:00:57.099Z,2.60
2022-08-23T03:02:29.297Z,2.80
2022-08-23T03:04:03.500Z,2.77
2022-08-23T03:05:36.402Z,2.80
2022-08-23T03:07:08.228Z,2.67
2022-08-23T03:08:41.062Z,2.80
2022-08-23T03:10:16.261Z,2.67
2022-08-23T03:11:50.648Z,2.80
2022-08-23T03:13:23.438Z,3.00
2022-08-23T03:14:57.538Z,2.90
2022-08-23T03:16:30.490Z,2.50
2022-08-23T03:18:03.299Z,2.70
2022-08-23T03:19:36.304Z,2.53
2022-08-23T03:21:10.383Z,2.63
2022-08-23T03:22:54.290Z,2.80
2022-08-23T03:24:27.627Z,2.70
2022-08-23T03:26:03.347Z,2.77
2022-08-23T03:27:43.684Z,2.90
2022-08-23T03:29:18.775Z,2.70
2022-08-23T03:30:52.462Z,2.80
2022-08-23T03:32:26.159Z,2.77
2022-08-23T03:33:59.039Z,2.40
2022-08-23T03:35:32.047Z,2.90
2022-08-23T03:37:05.258Z,2.77
2022-08-23T03:38:39.713Z,2.90
2022-08-23T03:40:13.110Z,2.40
2022-08-23T03:41:45.891Z,3.03
2022-08-23T03:43:18.990Z,2.80
2022-08-23T03:44:56.771Z,2.80
2022-08-23T03:46:37.190Z,2.80
2022-08-23T03:48:09.974Z,2.47
2022-08-23T03:49:42.784Z,2.70
2022-08-23T03:51:14.633Z,3.00
2022-08-23T03:52:47.583Z,2.70
2022-08-23T03:54:20.490Z,2.60
2022-08-23T03:55:56.930Z,2.97
2022-08-23T03:57:29.659Z,2.80
2022-08-23T03:59:07.002Z,2.83
2022-08-23T04:00:40.319Z,3.10
2022-08-23T04:02:14.858Z,2.83
2022-08-23T04:03:48.312Z,2.93
2022-08-23T04:05:21.563Z,2.70
2022-08-23T04:06:54.351Z,2.97
2022-08-23T04:08:31.930Z,3.20
2022-08-23T04:10:08.755Z,3.17
2022-08-23T04:11:41.515Z,2.93
2022-08-23T04:13:14.299Z,3.07
2022-08-23T04:14:47.059Z,2.90
2022-08-23T04:16:20.054Z,3.00
2022-08-23T04:17:54.333Z,3.13
2022-08-23T04:19:27.139Z,2.90
2022-08-23T04:21:06.222Z,3.07
2022-08-23T04:22:39.345Z,3.03
2022-08-23T04:24:12.723Z,2.80
2022-08-23T04:25:45.551Z,3.07
2022-08-23T04:27:18.694Z,3.03
2022-08-23T04:28:50.531Z,2.93
2022-08-23T04:30:23.353Z,2.90
2022-08-23T04:31:56.935Z,2.97
2022-08-23T04:33:33.908Z,3.10
2022-08-23T04:35:07.426Z,2.80
2022-08-23T04:36:51.659Z,2.87
2022-08-23T04:38:28.142Z,3.10
2022-08-23T04:40:33.096Z,3.00
2022-08-23T04:42:21.805Z,2.60
2022-08-23T04:43:56.256Z,3.10
2022-08-23T04:45:29.455Z,2.80
2022-08-23T04:47:02.383Z,2.60
2022-08-23T04:48:37.229Z,3.03
2022-08-23T04:50:10.175Z,2.83
2022-08-23T04:51:43.146Z,2.70
2022-08-23T04:53:26.450Z,3.00
2022-08-23T04:54:59.194Z,3.20
2022-08-23T04:56:32.171Z,3.10
2022-08-23T04:58:05.005Z,2.97
2022-08-23T04:59:37.851Z,2.63
2022-08-23T05:01:11.607Z,3.10
2022-08-23T05:02:43.818Z,3.03
2022-08-23T05:04:18.590Z,3.10
2022-08-23T05:05:52.693Z,3.20
2022-08-23T05:07:41.867Z,2.67
2022-08-23T05:09:20.564Z,3.23
2022-08-23T05:10:53.967Z,3.20
2022-08-23T05:12:26.723Z,3.50
2022-08-23T05:13:59.435Z,3.10
2022-08-23T05:15:32.210Z,2.83
2022-08-23T05:17:05.147Z,3.30
2022-08-23T05:18:38.048Z,3.57
2022-08-23T05:20:12.710Z,3.37
2022-08-23T05:21:45.550Z,3.40
2022-08-23T05:23:18.396Z,3.07
2022-08-23T05:24:50.273Z,3.07
2022-08-23T05:26:23.250Z,2.93
2022-08-23T05:27:57.395Z,2.97
2022-08-23T05:29:30.365Z,2.90
2022-08-23T05:31:08.185Z,3.30
2022-08-23T05:32:44.409Z,2.73
2022-08-23T05:34:17.190Z,3.00
2022-08-23T05:35:57.523Z,3.27
2022-08-23T05:37:30.287Z,3.10
2022-08-23T05:39:03.176Z,3.30
2022-08-23T05:40:35.926Z,3.20
2022-08-23T05:42:14.480Z,3.00
2022-08-23T05:43:48.042Z,2.83
2022-08-23T05:45:21.228Z,3.20
2022-08-23T05:46:54.807Z,3.10
2022-08-23T05:48:28.012Z,2.63
2022-08-23T05:50:01.376Z,2.87
2022-08-23T05:51:36.480Z,3.17
2022-08-23T05:53:10.714Z,3.03
2022-08-23T05:54:43.499Z,3.30
2022-08-23T05:56:16.984Z,3.40
2022-08-23T05:57:49.922Z,3.30
2022-08-23T05:59:22.798Z,3.53
2022-08-23T06:00:55.770Z,2.80
2022-08-23T06:02:28.603Z,2.90
2022-08-23T06:04:02.631Z,3.20
2022-08-23T06:05:40.539Z,3.37
2022-08-23T06:07:14.691Z,3.60
2022-08-23T06:08:48.566Z,2.77
2022-08-23T06:10:21.556Z,3.20
2022-08-23T06:11:54.579Z,3.03
2022-08-23T06:13:27.330Z,3.10
2022-08-23T06:15:00.201Z,2.90
2022-08-23T06:16:36.128Z,2.83
2022-08-23T06:18:08.916Z,2.70
2022-08-23T06:19:41.667Z,3.03
2022-08-23T06:21:16.509Z,2.87
2022-08-23T06:22:50.639Z,3.27
2022-08-23T06:24:24.179Z,3.40
2022-08-23T06:25:56.556Z,3.10
2022-08-23T06:27:29.316Z,3.43
2022-08-23T06:29:05.842Z,3.07
2022-08-23T06:30:39.999Z,2.90
2022-08-23T06:32:12.026Z,2.67
2022-08-23T06:33:44.914Z,3.00
2022-08-23T06:35:39.490Z,2.60
2022-08-23T06:37:14.335Z,3.20
2022-08-23T06:38:50.847Z,3.20
2022-08-23T06:40:23.892Z,3.13
2022-08-23T06:42:00.617Z,3.30
2022-08-23T06:43:34.488Z,2.90
2022-08-23T06:45:08.139Z,3.03
2022-08-23T06:46:41.146Z,2.90
2022-08-23T06:48:18.276Z,3.33
2022-08-23T06:49:57.704Z,2.97
2022-08-23T06:51:34.032Z,3.47
2022-08-23T06:53:10.072Z,3.20
2022-08-23T06:54:46.929Z,3.57
2022-08-23T06:56:19.819Z,3.60
2022-08-23T06:57:52.605Z,3.27
2022-08-23T06:59:25.588Z,2.90
2022-08-23T07:01:23.442Z,3.10
2022-08-23T07:03:03.568Z,3.40
2022-08-23T07:04:40.456Z,3.10
2022-08-23T07:06:13.326Z,3.63
2022-08-23T07:07:46.338Z,3.10
2022-08-23T07:09:19.583Z,3.50
2022-08-23T07:10:53.767Z,3.03
2022-08-23T07:12:26.523Z,2.80
2022-08-23T07:14:00.977Z,3.30
2022-08-23T07:15:33.807Z,3.00
2022-08-23T07:17:06.790Z,2.93
2022-08-23T07:18:38.884Z,2.90
2022-08-23T07:20:11.863Z,2.90
2022-08-23T07:21:48.818Z,3.47
2022-08-23T07:23:22.330Z,3.00
2022-08-23T07:24:55.187Z,3.10
2022-08-23T07:26:29.347Z,3.10
2022-08-23T07:28:02.637Z,3.00
2022-08-23T07:29:38.044Z,3.10
2022-08-23T07:31:14.676Z,3.20
2022-08-23T07:32:47.728Z,2.93
2022-08-23T07:34:21.156Z,3.30
2022-08-23T07:35:54.247Z,3.10
2022-08-23T07:37:28.238Z,3.10
2022-08-23T07:39:01.545Z,3.00
2022-08-23T07:40:38.771Z,3.10
2022-08-23T07:42:23.857Z,3.17
2022-08-23T07:43:58.043Z,3.37
2022-08-23T07:45:30.959Z,3.37
2022-08-23T07:47:06.070Z,3.10
2022-08-23T07:48:53.361Z,3.13
2022-08-23T07:50:30.518Z,2.93
2022-08-23T07:52:03.613Z,3.10
2022-08-23T07:53:37.599Z,3.10
2022-08-23T07:55:11.207Z,3.07
2022-08-23T07:56:44.317Z,2.60
2022-08-23T07:58:18.942Z,3.03
2022-08-23T07:59:52.487Z,2.97
2022-08-23T08:01:28.573Z,3.33
2022-08-23T08:03:01.500Z,2.80
2022-08-23T08:04:34.487Z,3.17
2022-08-23T08:06:12.810Z,2.60
2022-08-23T08:07:45.566Z,3.10
2022-08-23T08:09:20.152Z,2.83
2022-08-23T08:10:55.843Z,3.23
2022-08-23T08:12:31.934Z,3.00
2022-08-23T08:14:08.584Z,3.00
2022-08-23T08:15:43.146Z,2.70
2022-08-23T08:17:17.038Z,2.60
2022-08-23T08:18:49.875Z,2.80
2022-08-23T08:20:23.719Z,2.70
2022-08-23T08:21:56.466Z,2.67
2022-08-23T08:23:30.002Z,3.13
2022-08-23T08:25:03.014Z,2.87
2022-08-23T08:26:35.823Z,3.00
2022-08-23T08:28:15.193Z,3.07
2022-08-23T08:29:49.982Z,3.10
2022-08-23T08:31:23.446Z,3.10
2022-08-23T08:32:56.274Z,2.67
2022-08-23T08:34:29.046Z,3.10
2022-08-23T08:36:05.095Z,2.83
2022-08-23T08:37:39.231Z,3.00
2022-08-23T08:39:14.646Z,3.13
2022-08-23T08:40:51.507Z,3.03
2022-08-23T08:42:43.400Z,2.60
2022-08-23T08:44:26.497Z,3.10
2022-08-23T08:46:06.398Z,3.00
2022-08-23T08:47:45.231Z,3.13
2022-08-23T08:49:31.994Z,3.00
2022-08-23T08:51:14.992Z,3.20
2022-08-23T08:52:51.405Z,2.80
2022-08-23T08:54:28.568Z,2.95
2022-08-23T08:56:07.805Z,2.95
2022-08-23T08:57:45.428Z,2.70
2022-08-23T08:59:23.688Z,2.80
2022-08-23T09:00:57.250Z,2.90
2022-08-23T09:02:34.708Z,3.40
2022-08-23T09:04:08.689Z,3.60
2022-08-23T09:05:48.573Z,3.17
2022-08-23T09:07:31.297Z,3.38
2022-08-23T09:09:16.726Z,3.10
2022-08-23T09:10:58.667Z,3.25
2022-08-23T09:12:43.428Z,3.10
2022-08-23T09:14:51.987Z,3.00
2022-08-23T09:16:38.016Z,3.15
2022-08-23T09:18:14.495Z,2.92
2022-08-23T09:19:50.818Z,3.00
2022-08-23T09:21:23.831Z,3.35
2022-08-23T09:23:07.351Z,3.28
2022-08-23T09:24:40.736Z,3.15
2022-08-23T09:26:23.011Z,3.00
2022-08-23T09:27:55.835Z,3.33
2022-08-23T09:29:31.233Z,3.30
2022-08-23T09:31:08.404Z,3.00
2022-08-23T09:32:43.978Z,3.13
2022-08-23T09:34:20.925Z,3.13
2022-08-23T09:36:14.190Z,3.15
2022-08-23T09:37:51.702Z,2.90
2022-08-23T09:39:31.103Z,3.13
2022-08-23T09:41:20.134Z,3.30
2022-08-23T09:43:06.968Z,3.20
2022-08-23T09:44:42.374Z,3.17
2022-08-23T09:46:26.625Z,2.88
2022-08-23T09:47:59.900Z,3.13
2022-08-23T09:49:34.051Z,3.15
2022-08-23T09:51:17.633Z,3.15
2022-08-23T09:52:51.196Z,3.42
2022-08-23T09:54:31.015Z,3.30
2022-08-23T09:56:14.095Z,3.28
2022-08-23T09:57:49.457Z,3.20
2022-08-23T09:59:28.872Z,3.20
2022-08-23T10:01:13.477Z,3.05
2022-08-23T10:02:46.311Z,3.50
2022-08-23T10:04:24.451Z,3.50
2022-08-23T10:06:00.751Z,3.17
2022-08-23T10:07:42.364Z,3.30
2022-08-23T10:09:26.489Z,3.30
2022-08-23T10:11:05.682Z,3.17
2022-08-23T10:12:40.999Z,3.17
2022-08-23T10:14:15.990Z,3.15
2022-08-23T10:16:02.955Z,3.08
2022-08-23T10:17:41.590Z,3.28
2022-08-23T10:19:21.111Z,3.35
2022-08-23T10:21:01.947Z,3.22
2022-08-23T10:22:47.335Z,3.50
2022-08-23T10:24:43.415Z,2.92
2022-08-23T10:26:25.812Z,3.40
2022-08-23T10:28:23.704Z,3.15
2022-08-23T10:30:03.415Z,3.58
2022-08-23T10:31:41.770Z,3.38
2022-08-23T10:33:21.071Z,3.40
2022-08-23T10:35:22.612Z,3.30
2022-08-23T10:37:07.983Z,3.45
2022-08-23T10:38:45.753Z,3.25
2022-08-23T10:40:28.315Z,3.30
2022-08-23T10:42:06.589Z,3.22
2022-08-23T10:43:46.488Z,3.50
2022-08-23T10:45:26.219Z,3.95
2022-08-23T10:47:11.393Z,3.40
2022-08-23T10:48:51.431Z,3.30
2022-08-23T10:50:24.366Z,3.70
2022-08-23T10:52:00.104Z,3.08
2022-08-23T10:53:38.427Z,3.80
2022-08-23T10:55:34.709Z,3.70
2022-08-23T10:57:07.637Z,3.47
2022-08-23T10:58:47.358Z,3.70
2022-08-23T11:00:27.555Z,4.00
2022-08-23T11:02:07.403Z,3.55
2022-08-23T11:03:45.818Z,3.75
2022-08-23T11:05:22.230Z,3.75
2022-08-23T11:06:58.713Z,3.50
2022-08-23T11:08:33.908Z,3.53
2022-08-23T11:10:16.644Z,3.80
2022-08-23T11:12:09.298Z,3.58
2022-08-23T11:13:53.042Z,3.58
2022-08-23T11:15:33.095Z,3.70
2022-08-23T11:17:08.258Z,3.67
2022-08-23T11:18:44.318Z,3.70
2022-08-23T11:21:01.131Z,3.40
2022-08-23T11:22:57.119Z,3.65
2022-08-23T11:24:54.719Z,3.60
2022-08-23T11:27:06.663Z,4.05
2022-08-23T11:28:42.579Z,3.97
2022-08-23T11:30:49.636Z,3.70
2022-08-23T11:32:37.868Z,3.67
2022-08-23T11:34:20.710Z,3.75
2022-08-23T11:36:16.398Z,3.53
2022-08-23T11:37:53.249Z,3.92
2022-08-23T11:39:26.952Z,3.65
2022-08-23T11:41:12.484Z,3.65
2022-08-23T11:42:49.716Z,3.67
2022-08-23T11:44:33.971Z,3.70
2022-08-23T11:46:35.100Z,3.38
2022-08-23T11:48:19.102Z,3.83
2022-08-23T11:50:07.837Z,3.65
2022-08-23T11:51:48.402Z,3.77
2022-08-23T11:53:42.147Z,3.90
2022-08-23T11:55:32.187Z,3.60
2022-08-23T11:57:29.303Z,3.38
2022-08-23T11:59:16.647Z,3.40
2022-08-23T12:00:57.322Z,3.47
2022-08-23T12:02:41.136Z,3.50
2022-08-23T12:04:32.446Z,3.50
2022-08-23T12:06:12.536Z,3.40
2022-08-23T12:07:51.895Z,3.67
2022-08-23T12:09:57.279Z,3.77
2022-08-23T12:12:00.685Z,3.40
2022-08-23T12:13:51.274Z,3.43
2022-08-23T12:16:02.092Z,3.25
2022-08-23T12:18:05.348Z,3.50
2022-08-23T12:19:42.329Z,3.30
2022-08-23T12:21:21.910Z,3.47
2022-08-23T12:23:02.689Z,3.40
2022-08-23T12:24:44.698Z,3.70
2022-08-23T12:26:27.284Z,3.27
2022-08-23T12:28:11.651Z,3.43
2022-08-23T12:29:53.359Z,3.40
2022-08-23T12:31:34.209Z,2.97
2022-08-23T12:33:20.050Z,3.27
2022-08-23T12:35:06.658Z,2.93
2022-08-23T12:36:50.176Z,3.80
2022-08-23T12:38:36.252Z,3.10
2022-08-23T12:40:15.611Z,3.53
2022-08-23T12:41:56.298Z,3.57
2022-08-23T12:43:31.378Z,3.30
2022-08-23T12:45:09.003Z,3.50
2022-08-23T12:46:44.504Z,3.30
2022-08-23T12:48:21.915Z,3.43
2022-08-23T12:49:57.863Z,3.73
2022-08-23T12:51:31.055Z,3.20
2022-08-23T12:53:07.006Z,3.30
2022-08-23T12:54:42.403Z,3.50
2022-08-23T12:56:18.715Z,3.40
2022-08-23T12:57:54.429Z,3.20
2022-08-23T12:59:35.687Z,3.30
2022-08-23T13:01:19.023Z,3.40
2022-08-23T13:02:58.237Z,3.20
2022-08-23T13:04:33.172Z,3.00
2022-08-23T13:06:11.121Z,3.13
2022-08-23T13:07:44.666Z,2.97
2022-08-23T13:09:21.314Z,3.10
2022-08-23T13:10:54.377Z,3.07
2022-08-23T13:12:28.152Z,3.20
2022-08-23T13:14:01.102Z,3.30
2022-08-23T13:15:47.667Z,3.30
2022-08-23T13:17:23.610Z,3.60
2022-08-23T13:19:10.389Z,3.30
2022-08-23T13:20:44.826Z,3.30
2022-08-23T13:22:24.392Z,3.50
2022-08-23T13:24:00.872Z,3.40
2022-08-23T13:25:37.028Z,3.10
2022-08-23T13:27:20.123Z,2.80
2022-08-23T13:29:02.935Z,3.13
2022-08-23T13:30:38.262Z,3.10
2022-08-23T13:32:27.375Z,2.93
2022-08-23T13:34:00.120Z,3.40
2022-08-23T13:35:39.715Z,3.13
2022-08-23T13:37:24.188Z,2.90
2022-08-23T13:38:57.050Z,3.53
2022-08-23T13:40:33.228Z,3.07
2022-08-23T13:42:06.260Z,3.13
2022-08-23T13:43:46.111Z,3.03
2022-08-23T13:45:21.586Z,2.97
2022-08-23T13:46:54.623Z,3.40
2022-08-23T13:48:31.260Z,3.23
2022-08-23T13:50:07.384Z,3.20
2022-08-23T13:51:45.512Z,3.20
2022-08-23T13:53:20.475Z,3.20
2022-08-23T13:54:53.286Z,3.33
2022-08-23T13:56:27.707Z,3.07
2022-08-23T13:58:00.637Z,3.30
2022-08-23T13:59:35.659Z,3.63
2022-08-23T14:01:15.427Z,3.03
2022-08-23T14:02:49.010Z,3.00
2022-08-23T14:04:21.947Z,3.40
2022-08-23T14:05:54.949Z,3.13
2022-08-23T14:07:28.761Z,2.90
2022-08-23T14:09:02.884Z,3.30
2022-08-23T14:10:35.791Z,3.13
2022-08-23T14:12:13.427Z,2.90
2022-08-23T14:13:48.516Z,3.33
2022-08-23T14:15:54.484Z,3.10
2022-08-23T14:17:16.964Z,3.20
2022-08-23T14:20:45.891Z,2.90
2022-08-23T14:22:19.662Z,3.00
2022-08-23T14:23:52.435Z,3.30
2022-08-23T14:25:26.724Z,2.90
2022-08-23T14:26:59.612Z,2.83
2022-08-23T14:28:32.379Z,3.20
2022-08-23T14:30:06.447Z,3.10
2022-08-23T14:31:39.445Z,3.00
2022-08-23T14:33:13.622Z,2.80
2022-08-23T14:34:46.331Z,2.70
2022-08-23T14:36:19.125Z,3.10
2022-08-23T14:38:09.362Z,3.10
2022-08-23T14:39:42.220Z,3.27
2022-08-23T14:41:19.683Z,2.90
2022-08-23T14:42:52.522Z,2.77
2022-08-23T14:44:29.020Z,3.30
2022-08-23T14:46:05.742Z,3.07
2022-08-23T14:47:38.722Z,3.10
2022-08-23T14:49:12.062Z,3.07
2022-08-23T14:50:45.177Z,2.80
2022-08-23T14:52:18.011Z,3.07
2022-08-23T14:53:51.266Z,2.97
2022-08-23T14:55:25.171Z,3.10
2022-08-23T14:56:59.635Z,3.10
2022-08-23T14:58:32.431Z,3.00
2022-08-23T15:00:06.856Z,2.63
2022-08-23T15:01:40.474Z,2.87
2022-08-23T15:03:18.601Z,2.80
2022-08-23T15:04:51.463Z,3.10
2022-08-23T15:06:24.251Z,2.97
2022-08-23T15:07:57.056Z,2.90
2022-08-23T15:09:29.848Z,2.93
2022-08-23T15:13:03.073Z,2.97
2022-08-23T15:14:48.827Z,3.00
2022-08-23T15:16:23.775Z,2.87
2022-08-23T15:17:59.586Z,2.90
2022-08-23T15:19:32.342Z,2.83
2022-08-23T15:21:05.634Z,2.97
2022-08-23T15:22:45.277Z,2.80
2022-08-23T15:24:29.015Z,3.17
2022-08-23T15:26:02.071Z,2.93
2022-08-23T15:27:34.877Z,2.80
2022-08-23T15:29:09.003Z,2.77
2022-08-23T15:30:42.168Z,2.90
2022-08-23T15:32:14.934Z,3.00
2022-08-23T15:33:55.335Z,2.97
2022-08-23T15:35:29.350Z,2.80
2022-08-23T15:37:02.230Z,2.90
2022-08-23T15:38:36.596Z,2.80
2022-08-23T15:40:11.180Z,2.90
2022-08-23T15:41:44.032Z,2.70
2022-08-23T15:43:18.050Z,2.67
2022-08-23T15:44:52.200Z,3.00
2022-08-23T15:46:25.137Z,2.83
2022-08-23T15:47:58.840Z,2.97
2022-08-23T15:49:36.545Z,2.73
2022-08-23T15:51:10.591Z,2.90
2022-08-23T15:52:43.360Z,2.80
2022-08-23T15:54:16.183Z,2.80
2022-08-23T15:55:49.841Z,2.90
2022-08-23T15:57:29.244Z,3.23
2022-08-23T15:59:02.269Z,2.90
2022-08-23T16:00:36.464Z,2.83
2022-08-23T16:02:09.358Z,2.93
2022-08-23T16:03:43.615Z,2.87
2022-08-23T16:05:16.432Z,2.80
2022-08-23T16:06:49.364Z,2.97
2022-08-23T16:08:25.667Z,2.70
2022-08-23T16:09:59.555Z,2.90
2022-08-23T16:11:32.606Z,2.80
2022-08-23T16:13:05.371Z,2.80
2022-08-23T16:14:38.604Z,3.00
2022-08-23T16:16:18.486Z,2.90
2022-08-23T16:17:51.354Z,2.83
2022-08-23T16:19:24.124Z,2.80
2022-08-23T16:20:56.894Z,2.80
2022-08-23T16:22:29.714Z,3.00
2022-08-23T16:24:02.639Z,2.80
2022-08-23T16:25:35.571Z,3.00
2022-08-23T16:27:09.775Z,2.90
2022-08-23T16:28:43.158Z,3.03
2022-08-23T16:30:16.664Z,2.87
2022-08-23T16:31:50.853Z,2.80
2022-08-23T16:33:23.598Z,2.80
2022-08-23T16:34:56.369Z,3.20
2022-08-23T16:36:30.409Z,3.03
2022-08-23T16:38:03.253Z,2.80
2022-08-23T16:39:36.361Z,3.37
2022-08-23T16:41:09.182Z,2.80
2022-08-23T16:42:42.238Z,2.90
2022-08-23T16:44:15.046Z,2.97
2022-08-23T16:45:47.919Z,2.97
2022-08-23T16:47:22.173Z,3.03
2022-08-23T16:48:54.916Z,3.20
2022-08-23T16:50:28.319Z,2.83
2022-08-23T16:52:01.202Z,3.20
2022-08-23T16:53:34.526Z,3.07
2022-08-23T16:55:10.276Z,3.10
2022-08-23T16:56:43.594Z,3.07
2022-08-23T16:58:16.415Z,2.80
2022-08-23T16:59:50.540Z,3.37
2022-08-23T17:01:23.416Z,3.20
2022-08-23T17:02:57.714Z,2.70
2022-08-23T17:04:31.503Z,3.10
2022-08-23T17:06:04.471Z,2.93
2022-08-23T17:07:37.269Z,3.43
2022-08-23T17:09:10.194Z,3.00
2022-08-23T17:10:43.636Z,2.93
2022-08-23T17:12:17.011Z,3.07
2022-08-23T17:13:49.762Z,2.90
2022-08-23T17:15:25.840Z,3.20
2022-08-23T17:16:59.940Z,3.23
2022-08-23T17:18:34.118Z,3.20
2022-08-23T17:20:07.695Z,3.17
2022-08-23T17:21:41.794Z,3.23
2022-08-23T17:23:14.571Z,2.70
2022-08-23T17:24:48.234Z,2.90
2022-08-23T17:26:26.051Z,3.00
2022-08-23T17:27:59.181Z,3.20
2022-08-23T17:29:34.596Z,3.07
2022-08-23T17:31:10.967Z,3.17
2022-08-23T17:32:44.169Z,3.00
2022-08-23T17:34:18.302Z,3.20
2022-08-23T17:35:51.086Z,3.20
2022-08-23T17:37:24.214Z,3.10
2022-08-23T17:38:57.386Z,3.03
2022-08-23T17:40:32.594Z,3.30
2022-08-23T17:42:06.015Z,2.93
2022-08-23T17:43:38.822Z,3.20
2022-08-23T17:45:12.163Z,3.33
2022-08-23T17:46:46.286Z,3.20
2022-08-23T17:48:21.836Z,3.33
2022-08-23T17:49:57.034Z,3.50
2022-08-23T17:51:29.795Z,3.10
2022-08-23T17:53:03.275Z,2.93
2022-08-23T17:54:37.260Z,3.13
2022-08-23T17:56:12.219Z,2.93
2022-08-23T17:57:46.646Z,3.10
2022-08-23T17:59:21.774Z,3.07
2022-08-23T18:00:54.594Z,3.13
2022-08-23T18:02:27.602Z,3.07
2022-08-23T18:04:00.353Z,2.80
2022-08-23T18:05:36.122Z,2.90
2022-08-23T18:07:09.053Z,2.93
2022-08-23T18:08:41.799Z,2.90
2022-08-23T18:10:14.740Z,3.10
2022-08-23T18:11:48.655Z,3.23
2022-08-23T18:13:22.022Z,2.93
2022-08-23T18:14:54.833Z,3.00
2022-08-23T18:16:34.509Z,3.13
2022-08-23T18:18:08.312Z,3.17
2022-08-23T18:19:41.086Z,3.20
2022-08-23T18:21:15.275Z,3.07
2022-08-23T18:22:48.468Z,3.17
2022-08-23T18:24:21.955Z,3.10
2022-08-23T18:25:54.694Z,3.33
2022-08-23T18:27:45.170Z,3.00
2022-08-23T18:29:17.798Z,3.20
2022-08-23T18:30:53.067Z,2.90
2022-08-23T18:32:26.206Z,3.10
2022-08-23T18:34:00.633Z,3.10
2022-08-23T18:35:34.427Z,2.90
2022-08-23T18:37:09.477Z,3.10
2022-08-23T18:38:42.229Z,3.03
2022-08-23T18:40:15.062Z,3.03
2022-08-23T18:41:47.875Z,2.93
2022-08-23T18:43:26.191Z,3.17
2022-08-23T18:44:58.988Z,2.73
2022-08-23T18:46:33.798Z,3.00
2022-08-23T18:48:07.102Z,3.33
2022-08-23T18:49:40.399Z,3.23
2022-08-23T18:51:18.162Z,3.10
2022-08-23T18:52:52.338Z,2.80
2022-08-23T18:54:25.166Z,3.17
2022-08-23T18:55:58.138Z,3.07
2022-08-23T18:57:30.927Z,3.23
2022-08-23T18:59:08.380Z,2.90
2022-08-23T19:00:41.746Z,3.20
2022-08-23T19:02:14.717Z,3.60
2022-08-23T19:03:47.765Z,2.97
2022-08-23T19:05:20.618Z,2.87
2022-08-23T19:06:54.483Z,3.20
2022-08-23T19:08:28.678Z,3.00
2022-08-23T19:10:02.446Z,3.03
2022-08-23T19:11:36.331Z,3.50
2022-08-23T19:13:10.005Z,3.33
2022-08-23T19:14:42.759Z,3.10
2022-08-23T19:16:16.979Z,3.20
2022-08-23T19:17:49.844Z,3.20
2022-08-23T19:19:23.895Z,3.30
2022-08-23T19:20:56.788Z,3.50
2022-08-23T19:22:29.635Z,3.27
2022-08-23T19:24:05.109Z,3.37
2022-08-23T19:25:38.403Z,3.43
2022-08-23T19:27:11.219Z,3.10
2022-08-23T19:28:44.347Z,3.40
2022-08-23T19:30:17.598Z,3.40
2022-08-23T19:31:50.894Z,3.23
2022-08-23T19:33:23.725Z,3.20
2022-08-23T19:34:56.456Z,3.00
2022-08-23T19:36:45.258Z,3.20
2022-08-23T19:38:19.586Z,3.10
2022-08-23T19:39:53.760Z,3.20
2022-08-23T19:41:26.611Z,3.10
2022-08-23T19:43:00.299Z,3.43
2022-08-23T19:44:34.683Z,2.90
2022-08-23T19:46:08.190Z,3.10
2022-08-23T19:47:41.223Z,3.33
2022-08-23T19:49:15.451Z,2.97
2022-08-23T19:50:49.371Z,3.10
2022-08-23T19:52:22.195Z,3.10
2022-08-23T19:54:11.620Z,3.50
2022-08-23T19:55:47.803Z,3.27
2022-08-23T19:57:22.239Z,3.00
2022-08-23T19:58:55.019Z,3.07
2022-08-23T20:00:29.069Z,3.30
2022-08-23T20:02:02.917Z,3.10
2022-08-23T20:03:35.788Z,3.20
2022-08-23T20:05:09.943Z,3.13
2022-08-23T20:06:42.781Z,3.13
2022-08-23T20:08:15.535Z,3.30
2022-08-23T20:09:48.280Z,3.27
2022-08-23T20:11:22.684Z,3.10
2022-08-23T20:12:55.675Z,2.87
2022-08-23T20:14:31.202Z,3.40
2022-08-23T20:16:04.785Z,3.20
2022-08-23T20:17:38.252Z,3.00
2022-08-23T20:19:11.342Z,3.17
2022-08-23T20:20:44.219Z,3.20
2022-08-23T20:22:35.006Z,3.30
2022-08-23T20:24:09.715Z,3.13
2022-08-23T20:25:42.775Z,2.77
2022-08-23T20:27:25.435Z,3.37
2022-08-23T20:29:06.086Z,3.10
2022-08-23T20:30:38.883Z,3.10
2022-08-23T20:32:11.960Z,3.33
2022-08-23T20:33:46.376Z,3.10
2022-08-23T20:35:19.526Z,2.97
2022-08-23T20:36:53.239Z,3.23
2022-08-23T20:38:33.864Z,3.40
2022-08-23T20:40:10.058Z,3.30
2022-08-23T20:41:42.920Z,3.13
2022-08-23T20:43:17.851Z,3.30
2022-08-23T20:44:50.631Z,3.10
2022-08-23T20:46:23.568Z,3.43
2022-08-23T20:47:56.387Z,3.50
2022-08-23T20:49:29.296Z,3.17
2022-08-23T20:51:02.775Z,3.27
2022-08-23T20:52:35.545Z,3.47
2022-08-23T20:54:10.194Z,3.13
2022-08-23T20:55:43.183Z,3.30
2022-08-23T20:57:15.915Z,3.93
2022-08-23T20:58:51.000Z,3.33
2022-08-23T21:00:23.779Z,3.40
2022-08-23T21:01:56.576Z,3.57
2022-08-23T21:03:29.848Z,3.70
2022-08-23T21:05:04.732Z,3.60
2022-08-23T21:06:45.212Z,3.30
2022-08-23T21:08:18.462Z,3.00
2022-08-23T21:09:51.630Z,3.23
2022-08-23T21:11:25.977Z,3.00
2022-08-23T21:12:59.173Z,3.00
2022-08-23T21:14:33.309Z,3.10
2022-08-23T21:16:07.517Z,3.30
2022-08-23T21:17:40.402Z,3.10
2022-08-23T21:19:13.497Z,3.80
2022-08-23T21:20:46.238Z,3.90
2022-08-23T21:22:18.040Z,3.73
2022-08-23T21:23:50.864Z,4.20
2022-08-23T21:25:24.411Z,3.90
2022-08-23T21:26:56.215Z,3.70